Time;durP1;ratioP1;P1;durP2;ratioP2;P2;SDS_P1;SDS_P2;PMS_P1;PMS_P2;Temp;Humidity;BMP_temperature;BMP_pressure;BME280_temperature;BME280_humidity;BME280_pressure;Samples;Min_cycle;Max_cycle;Signal;HPM_P1;HPM_P2
2021/12/24 00:00:41;;;;;;;;;;;21.90;30.00;;;;;;487312;243;1503;-76
2021/12/24 00:02:43;;;;;;;;;;;21.80;29.90;;;;;;487323;243;1235;-76
2021/12/24 00:04:44;;;;;;;;;;;21.60;30.30;;;;;;487473;243;1189;-76
2021/12/24 00:06:45;;;;;;;;;;;21.90;30.00;;;;;;487453;243;1200;-76
2021/12/24 00:08:47;;;;;;;;;;;21.70;30.10;;;;;;487451;243;1004;-76
2021/12/24 00:10:56;;;;;;;;;;;22.00;30.00;;;;;;487441;243;1197;-76
2021/12/24 00:12:57;;;;;;;;;;;22.10;29.80;;;;;;486980;244;1431;-76
2021/12/24 00:14:55;;;;;;;;;;;22.10;29.80;;;;;;486921;244;2174;-76
2021/12/24 00:16:55;;;;;;;;;;;22.10;29.80;;;;;;487210;244;1458;-76
2021/12/24 00:18:59;;;;;;;;;;;22.10;29.80;;;;;;487252;244;1421;-76
2021/12/24 00:35:21;;;;;;;;;;;21.90;29.90;;;;;;487426;243;2111;-76
2021/12/24 00:37:16;;;;;;;;;;;21.80;30.00;;;;;;487007;244;1450;-76
2021/12/24 00:39:18;;;;;;;;;;;21.80;29.90;;;;;;487405;243;948;-76
2021/12/24 00:41:19;;;;;;;;;;;21.90;29.90;;;;;;487338;243;1093;-76
2021/12/24 00:43:21;;;;;;;;;;;21.80;30.00;;;;;;487573;243;963;-76
2021/12/24 00:45:22;;;;;;;;;;;22.00;29.80;;;;;;487403;243;962;-76
2021/12/24 00:47:25;;;;;;;;;;;21.80;29.90;;;;;;487462;243;1193;-76
2021/12/24 00:49:26;;;;;;;;;;;21.80;29.90;;;;;;487347;244;1428;-76
2021/12/24 00:51:32;;;;;;;;;;;21.90;29.90;;;;;;487332;243;1286;-76
2021/12/24 00:55:51;;;;;;;;;;;21.80;30.00;;;;;;487348;244;2103;-76
2021/12/24 00:57:52;;;;;;;;;;;21.70;30.00;;;;;;487482;243;1172;-76
2021/12/24 00:59:53;;;;;;;;;;;21.80;30.00;;;;;;487481;243;1071;-76
2021/12/24 01:01:55;;;;;;;;;;;21.70;30.00;;;;;;487343;243;1226;-76
2021/12/24 01:03:56;;;;;;;;;;;21.80;30.00;;;;;;487583;243;1232;-76
2021/12/24 01:05:57;;;;;;;;;;;21.60;30.00;;;;;;487348;243;1635;-76
2021/12/24 01:07:59;;;;;;;;;;;21.50;30.20;;;;;;487465;243;1132;-76
2021/12/24 01:10:00;;;;;;;;;;;21.40;30.40;;;;;;487367;243;979;-76
2021/12/24 01:12:01;;;;;;;;;;;21.50;30.50;;;;;;487329;243;1119;-76
2021/12/24 01:14:03;;;;;;;;;;;21.40;30.40;;;;;;487413;243;1051;-76
2021/12/24 01:16:13;;;;;;;;;;;21.70;30.20;;;;;;487370;240;2182;-76
2021/12/24 01:18:12;;;;;;;;;;;21.70;30.20;;;;;;487024;244;1414;-76
2021/12/24 01:20:13;;;;;;;;;;;21.70;30.20;;;;;;486928;244;1400;-76
2021/12/24 01:22:46;;;;;;;;;;;21.60;30.40;;;;;;486897;244;1385;-76
2021/12/24 01:24:22;;;;;;;;;;;21.60;30.20;;;;;;486053;245;1163;-76
2021/12/24 01:26:31;;;;;;;;;;;21.50;30.40;;;;;;487197;244;1425;-76
2021/12/24 01:37:57;;;;;;;;;;;22.00;30.00;;;;;;487362;244;1123;-76
2021/12/24 01:40:08;;;;;;;;;;;21.80;30.20;;;;;;487212;244;1474;-77
2021/12/24 01:44:17;;;;;;;;;;;21.80;30.10;;;;;;487479;244;946;-76
2021/12/24 01:46:17;;;;;;;;;;;21.70;30.30;;;;;;487277;244;1395;-76
2021/12/24 01:48:19;;;;;;;;;;;21.80;30.30;;;;;;487436;243;1227;-77
2021/12/24 01:50:20;;;;;;;;;;;21.70;30.40;;;;;;487474;243;1100;-76
2021/12/24 01:52:21;;;;;;;;;;;21.80;30.40;;;;;;487356;243;1215;-76
2021/12/24 01:54:23;;;;;;;;;;;21.90;30.40;;;;;;487363;243;946;-76
2021/12/24 01:56:24;;;;;;;;;;;21.80;30.40;;;;;;487294;243;2108;-76
2021/12/24 01:58:25;;;;;;;;;;;21.90;30.40;;;;;;487536;243;1110;-76
2021/12/24 02:00:27;;;;;;;;;;;21.80;30.40;;;;;;487326;243;970;-76
2021/12/24 02:02:28;;;;;;;;;;;21.70;30.60;;;;;;487300;243;1122;-76
2021/12/24 02:04:29;;;;;;;;;;;21.70;30.70;;;;;;487430;243;938;-76
2021/12/24 02:06:31;;;;;;;;;;;21.90;30.60;;;;;;487292;243;1195;-76
2021/12/24 02:08:32;;;;;;;;;;;21.90;30.50;;;;;;487416;243;1069;-76
2021/12/24 02:10:33;;;;;;;;;;;21.80;30.60;;;;;;487387;243;1002;-76
2021/12/24 02:12:35;;;;;;;;;;;21.90;30.60;;;;;;487531;243;1172;-76
2021/12/24 02:14:38;;;;;;;;;;;22.00;30.50;;;;;;487346;243;1400;-76
2021/12/24 02:16:49;;;;;;;;;;;21.90;30.70;;;;;;487328;240;2111;-76
2021/12/24 02:28:30;;;;;;;;;;;22.20;30.40;;;;;;487399;244;1149;-76
2021/12/24 02:30:27;;;;;;;;;;;22.40;30.30;;;;;;487133;244;1512;-76
2021/12/24 02:32:28;;;;;;;;;;;22.30;30.20;;;;;;487475;243;1115;-76
2021/12/24 02:34:30;;;;;;;;;;;22.50;30.20;;;;;;487381;243;1154;-76
2021/12/24 02:36:31;;;;;;;;;;;22.50;30.10;;;;;;487340;245;2127;-76
2021/12/24 02:38:32;;;;;;;;;;;22.60;30.00;;;;;;487532;245;1117;-77
2021/12/24 02:40:34;;;;;;;;;;;22.50;30.10;;;;;;487549;244;1105;-76
2021/12/24 02:42:35;;;;;;;;;;;22.40;30.10;;;;;;487431;244;1138;-76
2021/12/24 02:44:37;;;;;;;;;;;22.40;30.30;;;;;;487513;243;1193;-76
2021/12/24 02:46:52;;;;;;;;;;;22.30;30.40;;;;;;487358;243;1189;-76
2021/12/24 02:49:02;;;;;;;;;;;22.50;30.30;;;;;;486635;244;1439;-76
2021/12/24 02:55:36;;;;;;;;;;;22.40;30.40;;;;;;487424;244;2115;-76
2021/12/24 02:57:38;;;;;;;;;;;22.60;30.30;;;;;;487524;243;1084;-76
2021/12/24 02:59:47;;;;;;;;;;;22.40;30.40;;;;;;487558;243;1444;-76
2021/12/24 03:01:40;;;;;;;;;;;22.70;30.20;;;;;;486767;244;1391;-76
2021/12/24 03:03:44;;;;;;;;;;;22.70;30.10;;;;;;487393;243;947;-76
2021/12/24 03:05:42;;;;;;;;;;;22.60;30.30;;;;;;487251;244;1410;-76
2021/12/24 03:07:44;;;;;;;;;;;22.60;30.20;;;;;;487304;243;1118;-76
2021/12/24 03:09:45;;;;;;;;;;;22.70;30.20;;;;;;487421;243;1258;-76
2021/12/24 03:11:46;;;;;;;;;;;22.70;30.20;;;;;;487434;243;1227;-76
2021/12/24 03:13:48;;;;;;;;;;;22.70;30.20;;;;;;487422;243;968;-76
2021/12/24 03:15:51;;;;;;;;;;;22.60;30.30;;;;;;487332;243;2185;-76
2021/12/24 03:17:54;;;;;;;;;;;22.70;30.20;;;;;;487439;244;1431;-76
2021/12/24 03:19:53;;;;;;;;;;;22.70;30.10;;;;;;487247;244;1366;-76
2021/12/24 03:21:58;;;;;;;;;;;22.60;30.40;;;;;;487419;243;1461;-76
2021/12/24 03:26:21;;;;;;;;;;;22.80;30.20;;;;;;487336;244;1287;-76
2021/12/24 03:28:23;;;;;;;;;;;22.60;30.40;;;;;;487444;243;980;-76
2021/12/24 03:30:24;;;;;;;;;;;22.60;30.40;;;;;;487384;243;1139;-76
2021/12/24 03:32:26;;;;;;;;;;;22.50;30.50;;;;;;487368;243;1113;-76
2021/12/24 03:34:27;;;;;;;;;;;22.70;30.40;;;;;;487406;243;971;-76
2021/12/24 03:36:28;;;;;;;;;;;22.90;30.20;;;;;;487240;243;2190;-76
2021/12/24 03:38:30;;;;;;;;;;;22.80;30.00;;;;;;487371;243;1171;-76
2021/12/24 03:40:31;;;;;;;;;;;23.00;30.00;;;;;;487412;243;1321;-76
2021/12/24 03:42:36;;;;;;;;;;;22.80;30.10;;;;;;487442;243;1111;-76
2021/12/24 03:44:39;;;;;;;;;;;22.70;30.20;;;;;;487171;244;1379;-76
2021/12/24 03:46:43;;;;;;;;;;;22.80;30.20;;;;;;487047;244;1333;-76
2021/12/24 03:48:47;;;;;;;;;;;22.80;30.20;;;;;;486874;244;1440;-76
2021/12/24 03:50:49;;;;;;;;;;;22.70;30.30;;;;;;486921;244;1346;-76
2021/12/24 03:55:04;;;;;;;;;;;22.80;30.00;;;;;;487188;244;1192;-76
2021/12/24 03:57:05;;;;;;;;;;;22.90;30.00;;;;;;487253;243;2119;-76
2021/12/24 03:59:07;;;;;;;;;;;22.90;30.00;;;;;;487438;243;918;-76
2021/12/24 04:01:08;;;;;;;;;;;22.80;30.00;;;;;;487411;243;1208;-76
2021/12/24 04:03:09;;;;;;;;;;;22.40;30.50;;;;;;487458;243;1015;-76
2021/12/24 04:05:11;;;;;;;;;;;22.50;30.70;;;;;;487462;243;1182;-76
2021/12/24 04:07:12;;;;;;;;;;;22.50;30.60;;;;;;487428;243;1130;-76
2021/12/24 04:09:13;;;;;;;;;;;22.50;30.60;;;;;;487483;243;1222;-76
2021/12/24 04:11:15;;;;;;;;;;;22.30;30.70;;;;;;487382;243;1153;-76
2021/12/24 04:13:16;;;;;;;;;;;22.30;30.70;;;;;;487422;243;1069;-76
2021/12/24 04:15:17;;;;;;;;;;;22.00;31.10;;;;;;487426;243;960;-76
2021/12/24 04:17:19;;;;;;;;;;;22.00;31.20;;;;;;487333;243;2118;-76
2021/12/24 04:19:36;;;;;;;;;;;21.90;31.10;;;;;;487398;243;957;-76
2021/12/24 04:26:03;;;;;;;;;;;21.90;31.20;;;;;;487368;244;1018;-76
2021/12/24 04:28:04;;;;;;;;;;;22.00;31.10;;;;;;487381;243;1129;-76
2021/12/24 04:30:09;;;;;;;;;;;21.80;31.20;;;;;;487431;243;1037;-76
2021/12/24 04:32:11;;;;;;;;;;;21.90;31.30;;;;;;487159;244;1305;-76
2021/12/24 04:34:11;;;;;;;;;;;21.90;31.10;;;;;;487239;244;1421;-76
2021/12/24 04:36:17;;;;;;;;;;;21.90;31.20;;;;;;487324;243;2108;-76
2021/12/24 04:52:40;;;;;;;;;;;21.90;31.00;;;;;;487440;244;1118;-76
2021/12/24 05:01:32;;;;;;;;;;;22.10;30.60;;;;;;487426;245;1208;-76
2021/12/24 05:03:30;;;;;;;;;;;22.10;30.40;;;;;;487031;244;1403;-76
2021/12/24 05:05:38;;;;;;;;;;;22.00;30.50;;;;;;487208;240;1412;-76
2021/12/24 05:07:58;;;;;;;;;;;22.20;30.40;;;;;;486654;244;1466;-76
2021/12/24 05:09:40;;;;;;;;;;;22.10;30.40;;;;;;486153;245;1111;-76
2021/12/24 05:11:39;;;;;;;;;;;22.10;30.40;;;;;;487283;244;1323;-76
2021/12/24 05:13:41;;;;;;;;;;;22.10;30.40;;;;;;487520;243;1109;-76
2021/12/24 05:15:44;;;;;;;;;;;22.10;30.30;;;;;;487394;243;2198;-76
2021/12/24 05:18:02;;;;;;;;;;;22.30;30.10;;;;;;487239;243;1400;-76
2021/12/24 05:22:08;;;;;;;;;;;22.20;30.00;;;;;;487297;244;1211;-76
2021/12/24 05:24:09;;;;;;;;;;;22.20;30.10;;;;;;487413;243;1141;-76
2021/12/24 05:26:12;;;;;;;;;;;22.20;30.00;;;;;;487606;242;1218;-76
2021/12/24 05:28:12;;;;;;;;;;;22.20;30.00;;;;;;487296;244;1423;-77
2021/12/24 05:30:13;;;;;;;;;;;22.40;29.90;;;;;;487420;243;1147;-76
2021/12/24 05:32:14;;;;;;;;;;;22.30;30.00;;;;;;487333;243;1237;-76
2021/12/24 05:34:17;;;;;;;;;;;22.20;30.00;;;;;;487408;243;984;-76
2021/12/24 05:36:17;;;;;;;;;;;22.30;30.00;;;;;;487191;244;2190;-76
2021/12/24 05:38:18;;;;;;;;;;;22.40;29.80;;;;;;487412;243;1091;-76
2021/12/24 05:40:20;;;;;;;;;;;22.20;30.00;;;;;;487360;243;1198;-76
2021/12/24 05:42:23;;;;;;;;;;;21.90;30.10;;;;;;487337;243;1206;-76
2021/12/24 05:44:22;;;;;;;;;;;22.00;30.20;;;;;;487461;243;1449;-76
2021/12/24 05:46:24;;;;;;;;;;;21.80;30.30;;;;;;487360;243;1220;-76
2021/12/24 05:48:25;;;;;;;;;;;21.60;30.70;;;;;;487482;243;1176;-76
2021/12/24 05:50:27;;;;;;;;;;;22.10;30.20;;;;;;487433;243;937;-76
2021/12/24 05:52:28;;;;;;;;;;;22.00;30.10;;;;;;487253;243;1286;-76
2021/12/24 05:54:29;;;;;;;;;;;21.80;30.30;;;;;;487518;243;1096;-76
2021/12/24 05:56:30;;;;;;;;;;;21.80;30.40;;;;;;487261;243;2186;-76
2021/12/24 05:58:32;;;;;;;;;;;21.80;30.50;;;;;;487536;243;1162;-76
2021/12/24 06:00:33;;;;;;;;;;;21.70;30.50;;;;;;487458;243;1301;-76
2021/12/24 06:02:35;;;;;;;;;;;21.60;30.70;;;;;;487330;243;1190;-76
2021/12/24 06:04:36;;;;;;;;;;;21.60;30.70;;;;;;487426;243;991;-76
2021/12/24 06:06:37;;;;;;;;;;;21.60;30.70;;;;;;487380;243;1225;-76
2021/12/24 06:08:39;;;;;;;;;;;21.80;30.40;;;;;;487427;243;969;-76
2021/12/24 06:10:41;;;;;;;;;;;22.00;30.20;;;;;;487358;243;1241;-76
2021/12/24 06:12:41;;;;;;;;;;;21.80;30.40;;;;;;487230;243;1343;-76
2021/12/24 06:14:45;;;;;;;;;;;21.70;30.50;;;;;;487418;243;1014;-76
2021/12/24 06:16:49;;;;;;;;;;;21.70;30.60;;;;;;487185;243;2139;-76
2021/12/24 06:18:48;;;;;;;;;;;21.60;30.70;;;;;;487270;244;1537;-76
2021/12/24 06:20:49;;;;;;;;;;;21.70;30.70;;;;;;487360;243;1211;-76
2021/12/24 06:22:51;;;;;;;;;;;21.80;30.50;;;;;;487311;243;1140;-76
2021/12/24 06:24:52;;;;;;;;;;;21.70;30.60;;;;;;487384;243;1151;-76
2021/12/24 06:26:53;;;;;;;;;;;21.80;30.50;;;;;;487311;243;1189;-76
2021/12/24 06:28:55;;;;;;;;;;;21.70;30.60;;;;;;487379;243;1127;-76
2021/12/24 06:30:56;;;;;;;;;;;21.70;30.70;;;;;;487391;243;1152;-76
2021/12/24 06:32:57;;;;;;;;;;;21.70;30.60;;;;;;477956;247;1244;-76
2021/12/24 06:34:58;;;;;;;;;;;21.80;30.60;;;;;;471897;250;1262;-77
2021/12/24 06:37:00;;;;;;;;;;;21.90;30.50;;;;;;487361;243;2191;-76
2021/12/24 06:39:01;;;;;;;;;;;22.00;30.30;;;;;;487372;243;1427;-76
2021/12/24 06:41:02;;;;;;;;;;;21.60;30.60;;;;;;487397;243;1216;-76
2021/12/24 06:43:04;;;;;;;;;;;21.60;30.90;;;;;;487435;243;1147;-76
2021/12/24 06:45:05;;;;;;;;;;;21.60;30.80;;;;;;487499;243;1162;-76
2021/12/24 06:47:06;;;;;;;;;;;21.60;30.90;;;;;;487273;243;1138;-76
2021/12/24 06:49:08;;;;;;;;;;;21.60;30.90;;;;;;487337;243;1173;-76
2021/12/24 06:51:09;;;;;;;;;;;21.60;30.80;;;;;;487341;243;1219;-76
2021/12/24 06:53:11;;;;;;;;;;;21.50;30.90;;;;;;487339;243;1132;-76
2021/12/24 06:55:12;;;;;;;;;;;21.70;30.80;;;;;;487363;243;1182;-76
2021/12/24 06:57:17;;;;;;;;;;;21.60;31.00;;;;;;487250;243;2190;-76
2021/12/24 06:59:15;;;;;;;;;;;21.50;31.10;;;;;;487105;244;1433;-76
2021/12/24 07:01:16;;;;;;;;;;;21.70;30.90;;;;;;487399;243;1213;-76
2021/12/24 07:03:17;;;;;;;;;;;21.70;30.80;;;;;;487435;243;1177;-76
2021/12/24 07:05:19;;;;;;;;;;;21.60;30.90;;;;;;487436;243;1141;-76
2021/12/24 07:07:20;;;;;;;;;;;21.60;30.90;;;;;;487321;243;1223;-76
2021/12/24 07:09:22;;;;;;;;;;;21.50;31.10;;;;;;487290;243;1150;-76
2021/12/24 07:11:24;;;;;;;;;;;21.50;31.10;;;;;;487360;243;1476;-76
2021/12/24 07:13:24;;;;;;;;;;;21.50;31.10;;;;;;487421;244;1248;-76
2021/12/24 07:15:25;;;;;;;;;;;21.50;31.20;;;;;;487440;243;1091;-76
2021/12/24 07:17:27;;;;;;;;;;;21.60;31.10;;;;;;487290;243;2178;-76
2021/12/24 07:19:28;;;;;;;;;;;21.60;31.10;;;;;;487496;243;1167;-76
2021/12/24 07:21:29;;;;;;;;;;;21.60;31.10;;;;;;487273;243;1195;-76
2021/12/24 07:23:31;;;;;;;;;;;21.60;31.00;;;;;;487395;243;1166;-76
2021/12/24 07:25:32;;;;;;;;;;;21.60;31.00;;;;;;487464;240;1270;-76
2021/12/24 07:27:33;;;;;;;;;;;21.40;31.10;;;;;;487382;243;1407;-76
2021/12/24 07:29:35;;;;;;;;;;;21.60;31.10;;;;;;487419;243;1059;-76
2021/12/24 07:31:36;;;;;;;;;;;21.70;30.80;;;;;;487317;243;1282;-76
2021/12/24 07:33:37;;;;;;;;;;;21.80;30.80;;;;;;487384;243;1005;-76
2021/12/24 07:35:39;;;;;;;;;;;21.70;30.70;;;;;;487415;243;1238;-76
2021/12/24 07:37:41;;;;;;;;;;;21.80;30.70;;;;;;487271;243;2120;-76
2021/12/24 07:39:41;;;;;;;;;;;22.50;30.20;;;;;;487364;243;1495;-76
2021/12/24 07:41:43;;;;;;;;;;;22.00;30.50;;;;;;487333;243;1296;-76
2021/12/24 07:43:44;;;;;;;;;;;21.90;30.60;;;;;;487491;243;1098;-76
2021/12/24 07:45:46;;;;;;;;;;;22.00;30.50;;;;;;487366;243;1204;-76
2021/12/24 07:48:05;;;;;;;;;;;22.00;30.50;;;;;;487396;243;1411;-76
2021/12/24 07:49:51;;;;;;;;;;;21.80;30.80;;;;;;486354;244;1502;-76
2021/12/24 07:52:01;;;;;;;;;;;21.90;30.70;;;;;;487108;244;1403;-76
2021/12/24 07:54:00;;;;;;;;;;;22.00;30.70;;;;;;487159;244;1385;-76
2021/12/24 07:56:00;;;;;;;;;;;22.00;30.60;;;;;;487267;243;1395;-76
2021/12/24 07:58:01;;;;;;;;;;;22.20;30.40;;;;;;487397;243;2123;-76
2021/12/24 08:00:02;;;;;;;;;;;21.90;30.50;;;;;;487400;243;925;-76
2021/12/24 08:02:04;;;;;;;;;;;22.10;30.60;;;;;;487381;243;1131;-76
2021/12/24 08:04:06;;;;;;;;;;;22.00;30.60;;;;;;487339;243;1056;-76
2021/12/24 08:06:06;;;;;;;;;;;22.10;30.50;;;;;;487379;244;1454;-76
2021/12/24 08:08:08;;;;;;;;;;;22.00;30.60;;;;;;487323;243;1050;-76
2021/12/24 08:10:09;;;;;;;;;;;21.90;30.80;;;;;;487388;243;1103;-77
2021/12/24 08:12:10;;;;;;;;;;;21.90;30.90;;;;;;487308;243;1271;-76
2021/12/24 08:14:12;;;;;;;;;;;22.00;30.80;;;;;;487425;243;1091;-76
2021/12/24 08:16:14;;;;;;;;;;;22.00;30.80;;;;;;487334;243;1060;-76
2021/12/24 08:18:14;;;;;;;;;;;22.10;30.90;;;;;;487422;243;2119;-76
2021/12/24 08:20:21;;;;;;;;;;;22.20;30.60;;;;;;487371;243;1149;-76
2021/12/24 08:22:17;;;;;;;;;;;22.20;30.50;;;;;;486962;244;1382;-76
2021/12/24 08:24:18;;;;;;;;;;;22.10;30.70;;;;;;487420;243;1118;-76
2021/12/24 08:26:21;;;;;;;;;;;22.10;30.90;;;;;;487365;243;1254;-76
2021/12/24 08:28:21;;;;;;;;;;;22.10;30.90;;;;;;487388;243;1397;-77
2021/12/24 08:30:22;;;;;;;;;;;22.00;31.00;;;;;;487408;243;942;-76
2021/12/24 08:32:24;;;;;;;;;;;22.10;31.00;;;;;;487333;243;1139;-76
2021/12/24 08:34:25;;;;;;;;;;;22.00;31.10;;;;;;487406;243;1080;-76
2021/12/24 08:36:26;;;;;;;;;;;21.90;31.20;;;;;;487333;240;1213;-76
2021/12/24 08:38:28;;;;;;;;;;;22.00;31.40;;;;;;487599;243;2190;-76
2021/12/24 08:40:29;;;;;;;;;;;21.90;31.40;;;;;;487396;243;998;-76
2021/12/24 08:42:30;;;;;;;;;;;22.00;31.40;;;;;;487391;243;1192;-76
2021/12/24 08:44:32;;;;;;;;;;;22.10;31.40;;;;;;487518;243;1153;-76
2021/12/24 08:46:34;;;;;;;;;;;22.10;31.30;;;;;;487279;243;1446;-76
2021/12/24 08:48:35;;;;;;;;;;;22.10;31.40;;;;;;487366;243;974;-76
2021/12/24 08:50:36;;;;;;;;;;;22.00;31.50;;;;;;487379;243;973;-76
2021/12/24 08:52:37;;;;;;;;;;;22.00;31.50;;;;;;487307;243;1060;-76
2021/12/24 08:54:39;;;;;;;;;;;22.00;31.60;;;;;;487414;243;946;-76
2021/12/24 08:56:40;;;;;;;;;;;21.90;31.70;;;;;;487497;243;1460;-76
2021/12/24 08:58:42;;;;;;;;;;;22.00;31.70;;;;;;487445;243;2186;-76
2021/12/24 09:00:43;;;;;;;;;;;22.00;31.80;;;;;;487353;243;1127;-76
2021/12/24 09:02:44;;;;;;;;;;;22.10;31.70;;;;;;487383;243;1108;-76
2021/12/24 09:04:46;;;;;;;;;;;22.00;31.80;;;;;;487418;243;993;-76
2021/12/24 09:06:47;;;;;;;;;;;21.90;31.90;;;;;;487425;243;1208;-76
2021/12/24 09:08:48;;;;;;;;;;;21.80;32.10;;;;;;487477;243;1055;-76
2021/12/24 09:10:50;;;;;;;;;;;21.70;32.40;;;;;;487426;243;1198;-76
2021/12/24 09:12:51;;;;;;;;;;;21.80;32.30;;;;;;487574;243;1157;-76
2021/12/24 09:14:53;;;;;;;;;;;21.70;32.30;;;;;;487413;243;945;-76
2021/12/24 09:16:54;;;;;;;;;;;21.70;32.50;;;;;;487341;244;1324;-77
2021/12/24 09:19:01;;;;;;;;;;;22.00;32.20;;;;;;487417;243;2166;-76
2021/12/24 09:21:00;;;;;;;;;;;21.70;32.40;;;;;;487193;244;1411;-76
2021/12/24 09:23:00;;;;;;;;;;;21.50;32.80;;;;;;487153;244;1431;-76
2021/12/24 09:25:00;;;;;;;;;;;21.40;33.20;;;;;;487328;244;1436;-76
2021/12/24 09:27:02;;;;;;;;;;;21.50;33.30;;;;;;487362;243;1180;-76
2021/12/24 09:29:03;;;;;;;;;;;21.30;33.20;;;;;;487442;243;992;-76
2021/12/24 09:31:04;;;;;;;;;;;21.10;33.60;;;;;;487310;243;1264;-76
2021/12/24 09:33:06;;;;;;;;;;;21.10;33.70;;;;;;487437;243;1208;-76
2021/12/24 09:35:08;;;;;;;;;;;21.00;33.90;;;;;;487384;243;1118;-76
2021/12/24 09:37:09;;;;;;;;;;;21.20;33.50;;;;;;487249;244;1313;-76
2021/12/24 09:39:10;;;;;;;;;;;21.20;33.60;;;;;;487402;243;2194;-76
2021/12/24 09:41:11;;;;;;;;;;;21.60;33.20;;;;;;487331;243;1185;-76
2021/12/24 09:43:13;;;;;;;;;;;21.40;33.20;;;;;;487351;243;1130;-76
2021/12/24 09:45:14;;;;;;;;;;;21.10;33.70;;;;;;487425;243;1102;-76
2021/12/24 09:47:15;;;;;;;;;;;21.40;33.60;;;;;;487370;243;1171;-76
2021/12/24 09:49:17;;;;;;;;;;;21.30;33.90;;;;;;487323;243;1117;-76
2021/12/24 09:51:18;;;;;;;;;;;21.00;34.00;;;;;;487327;240;1127;-76
2021/12/24 09:53:19;;;;;;;;;;;21.40;33.60;;;;;;487454;243;1379;-76
2021/12/24 09:55:21;;;;;;;;;;;21.20;33.90;;;;;;487370;243;1050;-76
2021/12/24 09:57:22;;;;;;;;;;;21.10;34.00;;;;;;487350;243;2159;-76
2021/12/24 09:59:23;;;;;;;;;;;21.10;34.00;;;;;;487376;243;931;-76
2021/12/24 10:01:25;;;;;;;;;;;21.10;34.30;;;;;;487312;243;1114;-76
2021/12/24 10:03:26;;;;;;;;;;;21.10;34.30;;;;;;487381;243;1115;-76
2021/12/24 10:05:27;;;;;;;;;;;21.00;34.40;;;;;;487380;243;971;-76
2021/12/24 10:07:29;;;;;;;;;;;21.10;34.10;;;;;;487269;243;1137;-76
2021/12/24 10:09:30;;;;;;;;;;;21.20;34.30;;;;;;487399;243;943;-76
2021/12/24 10:11:31;;;;;;;;;;;21.40;34.10;;;;;;487281;243;1251;-76
2021/12/24 10:13:33;;;;;;;;;;;21.20;34.10;;;;;;487405;243;1094;-76
2021/12/24 10:15:34;;;;;;;;;;;21.00;34.60;;;;;;487348;243;1181;-76
2021/12/24 10:17:36;;;;;;;;;;;21.00;34.70;;;;;;487468;243;2203;-76
2021/12/24 10:19:37;;;;;;;;;;;21.00;34.80;;;;;;487342;244;1501;-76
2021/12/24 10:21:38;;;;;;;;;;;20.90;34.70;;;;;;487263;243;1237;-76
2021/12/24 10:23:39;;;;;;;;;;;21.10;34.50;;;;;;487371;243;1009;-76
2021/12/24 10:25:41;;;;;;;;;;;21.30;34.40;;;;;;487498;243;1013;-76
2021/12/24 10:27:42;;;;;;;;;;;21.10;34.60;;;;;;487450;243;1134;-76
2021/12/24 10:29:43;;;;;;;;;;;21.10;34.80;;;;;;487427;243;1176;-76
2021/12/24 10:31:45;;;;;;;;;;;20.90;34.90;;;;;;487341;243;1408;-76
2021/12/24 10:33:46;;;;;;;;;;;20.90;35.10;;;;;;487425;243;1074;-76
2021/12/24 10:35:47;;;;;;;;;;;20.80;35.10;;;;;;487377;243;1243;-76
2021/12/24 10:37:49;;;;;;;;;;;21.00;35.10;;;;;;487324;243;2119;-76
2021/12/24 10:39:50;;;;;;;;;;;20.90;35.10;;;;;;487404;243;933;-76
2021/12/24 10:41:51;;;;;;;;;;;21.00;35.10;;;;;;487391;243;1145;-76
2021/12/24 10:43:53;;;;;;;;;;;20.90;35.40;;;;;;487386;243;1140;-76
2021/12/24 10:45:54;;;;;;;;;;;20.80;35.40;;;;;;487418;243;1206;-76
2021/12/24 10:47:56;;;;;;;;;;;21.00;35.40;;;;;;487389;243;1127;-76
2021/12/24 10:50:11;;;;;;;;;;;20.90;35.50;;;;;;487382;243;1139;-76
2021/12/24 10:52:14;;;;;;;;;;;20.90;35.60;;;;;;487178;244;1490;-76
2021/12/24 10:54:14;;;;;;;;;;;20.90;35.50;;;;;;487319;243;1527;-76
2021/12/24 10:56:15;;;;;;;;;;;21.10;35.40;;;;;;487445;243;1215;-76
2021/12/24 10:58:16;;;;;;;;;;;21.60;34.60;;;;;;487433;243;2131;-76
2021/12/24 11:00:18;;;;;;;;;;;21.80;34.30;;;;;;487423;243;912;-76
2021/12/24 11:02:19;;;;;;;;;;;21.70;34.20;;;;;;487501;243;1142;-76
2021/12/24 11:04:20;;;;;;;;;;;21.60;34.40;;;;;;487395;243;960;-76
2021/12/24 11:06:22;;;;;;;;;;;21.30;35.00;;;;;;487339;243;1149;-76
2021/12/24 11:08:23;;;;;;;;;;;21.00;35.50;;;;;;487318;243;1217;-76
2021/12/24 11:10:24;;;;;;;;;;;21.00;35.60;;;;;;487414;243;947;-76
2021/12/24 11:12:28;;;;;;;;;;;21.30;35.30;;;;;;487498;243;1104;-76
2021/12/24 11:14:31;;;;;;;;;;;21.40;35.20;;;;;;487307;244;1517;-76
2021/12/24 11:16:28;;;;;;;;;;;21.20;35.30;;;;;;487109;244;1416;-76
2021/12/24 11:18:30;;;;;;;;;;;21.40;35.50;;;;;;487359;243;2131;-76
2021/12/24 11:20:31;;;;;;;;;;;21.10;35.60;;;;;;487379;243;1084;-76
2021/12/24 11:22:32;;;;;;;;;;;21.10;35.80;;;;;;487303;243;1121;-76
2021/12/24 11:24:34;;;;;;;;;;;21.30;35.50;;;;;;487428;243;988;-76
2021/12/24 11:26:48;;;;;;;;;;;21.10;35.90;;;;;;487323;243;1243;-76
2021/12/24 11:28:36;;;;;;;;;;;21.10;35.80;;;;;;486529;244;1993;-76
2021/12/24 11:30:38;;;;;;;;;;;21.20;36.00;;;;;;487388;243;950;-76
2021/12/24 11:32:39;;;;;;;;;;;21.10;36.00;;;;;;487397;243;1082;-76
2021/12/24 11:34:40;;;;;;;;;;;21.00;36.20;;;;;;487403;243;1025;-76
2021/12/24 11:36:42;;;;;;;;;;;21.00;36.20;;;;;;487313;243;1308;-77
2021/12/24 11:38:43;;;;;;;;;;;21.10;36.30;;;;;;487416;243;2174;-76
2021/12/24 11:40:44;;;;;;;;;;;21.70;35.20;;;;;;487368;243;1195;-76
2021/12/24 11:42:46;;;;;;;;;;;22.10;34.60;;;;;;487316;243;1158;-76
2021/12/24 11:44:47;;;;;;;;;;;22.60;34.10;;;;;;487397;243;1150;-76
2021/12/24 11:46:49;;;;;;;;;;;22.10;34.30;;;;;;487249;243;1528;-76
2021/12/24 11:48:50;;;;;;;;;;;22.30;34.20;;;;;;487378;243;1212;-76
2021/12/24 11:50:51;;;;;;;;;;;22.30;34.30;;;;;;487486;243;1418;-76
2021/12/24 11:52:52;;;;;;;;;;;22.20;34.20;;;;;;487255;243;1048;-76
2021/12/24 11:54:54;;;;;;;;;;;22.30;33.90;;;;;;487389;243;968;-76
2021/12/24 11:56:56;;;;;;;;;;;22.40;33.90;;;;;;487211;243;1212;-77
2021/12/24 11:58:56;;;;;;;;;;;22.40;33.90;;;;;;487302;245;2131;-76
2021/12/24 12:00:58;;;;;;;;;;;22.70;33.70;;;;;;487314;243;1129;-76
2021/12/24 12:02:59;;;;;;;;;;;22.10;34.50;;;;;;487349;243;1150;-76
2021/12/24 12:05:01;;;;;;;;;;;22.30;34.10;;;;;;487334;243;1153;-76
2021/12/24 12:07:02;;;;;;;;;;;22.10;34.70;;;;;;487283;243;1196;-76
2021/12/24 12:09:03;;;;;;;;;;;22.00;34.60;;;;;;487365;243;1094;-76
2021/12/24 12:11:05;;;;;;;;;;;22.10;34.70;;;;;;487388;243;1168;-76
2021/12/24 12:13:06;;;;;;;;;;;22.10;34.60;;;;;;487581;243;1066;-76
2021/12/24 12:15:07;;;;;;;;;;;22.10;34.80;;;;;;487543;243;1160;-76
2021/12/24 12:17:09;;;;;;;;;;;21.90;34.80;;;;;;487405;243;1180;-76
2021/12/24 12:19:13;;;;;;;;;;;22.00;34.70;;;;;;487398;243;2178;-76
2021/12/24 12:21:12;;;;;;;;;;;21.70;35.20;;;;;;487147;244;1358;-76
2021/12/24 12:23:19;;;;;;;;;;;21.70;35.20;;;;;;487354;243;1091;-76
2021/12/24 12:25:16;;;;;;;;;;;21.90;35.00;;;;;;487154;244;1516;-76
2021/12/24 12:27:17;;;;;;;;;;;21.90;35.30;;;;;;487371;243;1146;-76
2021/12/24 12:29:19;;;;;;;;;;;22.00;35.00;;;;;;487346;243;969;-76
2021/12/24 12:31:22;;;;;;;;;;;22.00;35.00;;;;;;487368;243;1137;-76
2021/12/24 12:33:22;;;;;;;;;;;21.90;35.10;;;;;;487284;244;1489;-76
2021/12/24 12:35:23;;;;;;;;;;;21.90;35.30;;;;;;487393;243;958;-76
2021/12/24 12:37:24;;;;;;;;;;;21.90;35.00;;;;;;487262;243;1175;-76
2021/12/24 12:39:26;;;;;;;;;;;21.70;35.30;;;;;;487368;243;2190;-76
2021/12/24 12:41:31;;;;;;;;;;;22.10;34.90;;;;;;487340;243;1232;-76
2021/12/24 12:43:30;;;;;;;;;;;21.80;35.30;;;;;;487258;244;1451;-76
2021/12/24 12:45:31;;;;;;;;;;;21.60;35.60;;;;;;487474;243;1163;-76
2021/12/24 12:47:36;;;;;;;;;;;22.00;35.10;;;;;;487308;243;1078;-76
2021/12/24 12:49:35;;;;;;;;;;;22.10;35.10;;;;;;487154;244;1412;-76
2021/12/24 12:51:35;;;;;;;;;;;21.70;35.40;;;;;;487208;243;1443;-76
2021/12/24 12:53:40;;;;;;;;;;;22.10;34.80;;;;;;487395;243;1108;-76
2021/12/24 12:55:40;;;;;;;;;;;22.00;35.20;;;;;;487172;244;1477;-76
2021/12/24 12:57:40;;;;;;;;;;;21.90;35.00;;;;;;487378;244;1404;-76
2021/12/24 12:59:40;;;;;;;;;;;21.90;35.40;;;;;;487428;244;2178;-76
2021/12/24 13:01:42;;;;;;;;;;;22.10;35.10;;;;;;487341;243;1184;-76
2021/12/24 13:03:43;;;;;;;;;;;21.90;35.30;;;;;;487395;243;1113;-76
2021/12/24 13:05:45;;;;;;;;;;;21.80;35.40;;;;;;487408;243;1138;-76
2021/12/24 13:07:46;;;;;;;;;;;21.80;35.50;;;;;;487461;243;1396;-76
2021/12/24 13:09:47;;;;;;;;;;;22.30;34.80;;;;;;487393;243;966;-76
2021/12/24 13:11:48;;;;;;;;;;;22.00;35.10;;;;;;487394;243;1221;-77
2021/12/24 13:13:56;;;;;;;;;;;22.10;35.10;;;;;;487420;243;973;-76